sensor_id;sensor_type;location;lat;lon;timestamp;temperature;humidity
14769;DHT22;7476;49.404;11.152;2023-04-04T00:01:55;1.30;99.90
14769;DHT22;7476;49.404;11.152;2023-04-04T00:04:22;1.30;99.90
14769;DHT22;7476;49.404;11.152;2023-04-04T00:06:49;1.30;99.90
14769;DHT22;7476;49.404;11.152;2023-04-04T00:09:17;1.30;99.90
14769;DHT22;7476;49.404;11.152;2023-04-04T00:11:44;1.30;99.90
14769;DHT22;7476;49.404;11.152;2023-04-04T00:14:11;1.40;99.90
14769;DHT22;7476;49.404;11.152;2023-04-04T00:16:38;1.30;99.90
14769;DHT22;7476;49.404;11.152;2023-04-04T00:19:05;1.30;99.90
14769;DHT22;7476;49.404;11.152;2023-04-04T00:21:31;1.30;99.90
14769;DHT22;7476;49.404;11.152;2023-04-04T00:23:58;1.30;99.90
14769;DHT22;7476;49.404;11.152;2023-04-04T00:26:26;1.30;99.90
14769;DHT22;7476;49.404;11.152;2023-04-04T00:28:53;1.30;99.90
14769;DHT22;7476;49.404;11.152;2023-04-04T00:31:20;1.30;99.90
14769;DHT22;7476;49.404;11.152;2023-04-04T00:33:47;1.40;99.90
14769;DHT22;7476;49.404;11.152;2023-04-04T00:36:14;1.40;99.90
14769;DHT22;7476;49.404;11.152;2023-04-04T00:38:41;1.30;99.90
14769;DHT22;7476;49.404;11.152;2023-04-04T00:41:08;1.20;99.90
14769;DHT22;7476;49.404;11.152;2023-04-04T00:43:36;1.20;99.90
14769;DHT22;7476;49.404;11.152;2023-04-04T00:46:03;1.10;99.90
14769;DHT22;7476;49.404;11.152;2023-04-04T00:48:30;1.00;99.90
14769;DHT22;7476;49.404;11.152;2023-04-04T00:50:57;1.00;99.90
14769;DHT22;7476;49.404;11.152;2023-04-04T00:53:24;0.90;99.90
14769;DHT22;7476;49.404;11.152;2023-04-04T00:55:50;1.00;99.90
14769;DHT22;7476;49.404;11.152;2023-04-04T00:58:17;0.90;99.90
14769;DHT22;7476;49.404;11.152;2023-04-04T01:00:45;0.90;99.90
14769;DHT22;7476;49.404;11.152;2023-04-04T01:03:12;0.80;99.90
14769;DHT22;7476;49.404;11.152;2023-04-04T01:05:39;0.60;99.90
14769;DHT22;7476;49.404;11.152;2023-04-04T01:08:06;0.70;99.90
14769;DHT22;7476;49.404;11.152;2023-04-04T01:10:33;0.50;99.90
14769;DHT22;7476;49.404;11.152;2023-04-04T01:13:00;0.30;99.90
14769;DHT22;7476;49.404;11.152;2023-04-04T01:15:26;0.30;99.90
14769;DHT22;7476;49.404;11.152;2023-04-04T01:17:57;0.20;99.90
14769;DHT22;7476;49.404;11.152;2023-04-04T01:20:25;0.20;99.90
14769;DHT22;7476;49.404;11.152;2023-04-04T01:22:56;0.00;99.90
14769;DHT22;7476;49.404;11.152;2023-04-04T01:25:28;-0.20;99.90
14769;DHT22;7476;49.404;11.152;2023-04-04T01:27:56;-0.50;99.90
14769;DHT22;7476;49.404;11.152;2023-04-04T01:30:23;-0.60;99.90
14769;DHT22;7476;49.404;11.152;2023-04-04T01:32:56;-0.60;99.90
14769;DHT22;7476;49.404;11.152;2023-04-04T01:35:29;-0.60;99.90
14769;DHT22;7476;49.404;11.152;2023-04-04T01:38:13;-0.70;99.90
14769;DHT22;7476;49.404;11.152;2023-04-04T01:40:57;-0.90;99.90
14769;DHT22;7476;49.404;11.152;2023-04-04T01:43:27;-1.10;99.90
14769;DHT22;7476;49.404;11.152;2023-04-04T01:45:57;-1.70;99.90
14769;DHT22;7476;49.404;11.152;2023-04-04T01:48:23;-2.00;99.90
14769;DHT22;7476;49.404;11.152;2023-04-04T01:50:51;-2.20;99.90
14769;DHT22;7476;49.404;11.152;2023-04-04T01:53:17;-2.70;99.90
14769;DHT22;7476;49.404;11.152;2023-04-04T01:55:45;-2.80;99.90
14769;DHT22;7476;49.404;11.152;2023-04-04T01:58:12;-2.70;99.90
14769;DHT22;7476;49.404;11.152;2023-04-04T02:00:39;-2.30;99.90
14769;DHT22;7476;49.404;11.152;2023-04-04T02:03:05;-2.50;99.90
14769;DHT22;7476;49.404;11.152;2023-04-04T02:05:32;-2.60;99.90
14769;DHT22;7476;49.404;11.152;2023-04-04T02:07:59;-2.90;99.90
14769;DHT22;7476;49.404;11.152;2023-04-04T02:10:25;-2.90;99.90
14769;DHT22;7476;49.404;11.152;2023-04-04T02:12:53;-3.10;99.90
14769;DHT22;7476;49.404;11.152;2023-04-04T02:15:20;-3.20;99.90
14769;DHT22;7476;49.404;11.152;2023-04-04T02:17:48;-3.50;99.90
14769;DHT22;7476;49.404;11.152;2023-04-04T02:20:15;-3.40;99.90
14769;DHT22;7476;49.404;11.152;2023-04-04T02:22:48;-3.70;99.90
14769;DHT22;7476;49.404;11.152;2023-04-04T02:25:15;-4.10;99.90
14769;DHT22;7476;49.404;11.152;2023-04-04T02:27:42;-4.50;99.90
14769;DHT22;7476;49.404;11.152;2023-04-04T02:30:11;-4.20;99.90
14769;DHT22;7476;49.404;11.152;2023-04-04T02:32:38;-4.10;99.90
14769;DHT22;7476;49.404;11.152;2023-04-04T02:35:05;-3.50;99.90
14769;DHT22;7476;49.404;11.152;2023-04-04T02:37:32;-3.10;99.90
14769;DHT22;7476;49.404;11.152;2023-04-04T02:39:58;-3.30;99.90
14769;DHT22;7476;49.404;11.152;2023-04-04T02:42:25;-3.80;99.90
14769;DHT22;7476;49.404;11.152;2023-04-04T02:44:52;-4.30;99.90
14769;DHT22;7476;49.404;11.152;2023-04-04T02:47:20;-4.60;99.90
14769;DHT22;7476;49.404;11.152;2023-04-04T02:49:46;-4.60;99.90
14769;DHT22;7476;49.404;11.152;2023-04-04T02:52:13;-3.90;99.90
14769;DHT22;7476;49.404;11.152;2023-04-04T02:54:39;-3.50;99.90
14769;DHT22;7476;49.404;11.152;2023-04-04T02:57:07;-3.90;99.90
14769;DHT22;7476;49.404;11.152;2023-04-04T02:59:34;-4.40;99.90
14769;DHT22;7476;49.404;11.152;2023-04-04T03:02:00;-4.70;99.90
14769;DHT22;7476;49.404;11.152;2023-04-04T03:04:28;-5.10;99.90
14769;DHT22;7476;49.404;11.152;2023-04-04T03:06:55;-5.30;99.90
14769;DHT22;7476;49.404;11.152;2023-04-04T03:09:22;-5.60;99.90
14769;DHT22;7476;49.404;11.152;2023-04-04T03:11:48;-5.70;99.90
14769;DHT22;7476;49.404;11.152;2023-04-04T03:14:16;-5.70;99.90
14769;DHT22;7476;49.404;11.152;2023-04-04T03:16:42;-5.70;99.90
14769;DHT22;7476;49.404;11.152;2023-04-04T03:19:09;-5.80;99.90
14769;DHT22;7476;49.404;11.152;2023-04-04T03:21:37;-5.90;99.90
14769;DHT22;7476;49.404;11.152;2023-04-04T03:24:04;-5.90;99.90
14769;DHT22;7476;49.404;11.152;2023-04-04T03:26:31;-6.00;99.90
14769;DHT22;7476;49.404;11.152;2023-04-04T03:28:58;-6.00;99.90
14769;DHT22;7476;49.404;11.152;2023-04-04T03:31:25;-5.80;99.90
14769;DHT22;7476;49.404;11.152;2023-04-04T03:33:51;-5.80;99.90
14769;DHT22;7476;49.404;11.152;2023-04-04T03:36:18;-5.80;99.90
14769;DHT22;7476;49.404;11.152;2023-04-04T03:38:46;-5.90;99.90
14769;DHT22;7476;49.404;11.152;2023-04-04T03:41:13;-5.90;99.90
14769;DHT22;7476;49.404;11.152;2023-04-04T03:43:40;-6.00;99.90
14769;DHT22;7476;49.404;11.152;2023-04-04T03:46:06;-6.00;99.90
14769;DHT22;7476;49.404;11.152;2023-04-04T03:48:34;-5.90;99.90
14769;DHT22;7476;49.404;11.152;2023-04-04T03:51:02;-6.00;99.90
14769;DHT22;7476;49.404;11.152;2023-04-04T03:53:29;-6.10;99.90
14769;DHT22;7476;49.404;11.152;2023-04-04T03:55:58;-6.20;99.90
14769;DHT22;7476;49.404;11.152;2023-04-04T03:58:25;-6.20;99.90
14769;DHT22;7476;49.404;11.152;2023-04-04T04:00:53;-6.20;99.90
14769;DHT22;7476;49.404;11.152;2023-04-04T04:03:20;-6.20;99.90
14769;DHT22;7476;49.404;11.152;2023-04-04T04:05:46;-6.20;99.90
14769;DHT22;7476;49.404;11.152;2023-04-04T04:08:13;-6.30;99.90
14769;DHT22;7476;49.404;11.152;2023-04-04T04:10:40;-6.30;99.90
14769;DHT22;7476;49.404;11.152;2023-04-04T04:13:08;-6.40;99.90
14769;DHT22;7476;49.404;11.152;2023-04-04T04:15:34;-6.40;99.90
14769;DHT22;7476;49.404;11.152;2023-04-04T04:18:01;-6.40;99.90
14769;DHT22;7476;49.404;11.152;2023-04-04T04:20:28;-6.20;99.90
14769;DHT22;7476;49.404;11.152;2023-04-04T04:22:54;-6.10;99.90
14769;DHT22;7476;49.404;11.152;2023-04-04T04:25:22;-5.90;99.90
14769;DHT22;7476;49.404;11.152;2023-04-04T04:27:48;-5.80;99.90
14769;DHT22;7476;49.404;11.152;2023-04-04T04:30:16;-5.80;99.90
14769;DHT22;7476;49.404;11.152;2023-04-04T04:32:44;-5.90;99.90
14769;DHT22;7476;49.404;11.152;2023-04-04T04:35:11;-6.10;99.90
14769;DHT22;7476;49.404;11.152;2023-04-04T04:37:37;-6.20;99.90
14769;DHT22;7476;49.404;11.152;2023-04-04T04:40:05;-6.20;99.90
14769;DHT22;7476;49.404;11.152;2023-04-04T04:42:33;-6.20;99.90
14769;DHT22;7476;49.404;11.152;2023-04-04T04:45:00;-6.20;99.90
14769;DHT22;7476;49.404;11.152;2023-04-04T04:47:29;-6.30;99.90
14769;DHT22;7476;49.404;11.152;2023-04-04T04:49:57;-6.20;99.90
14769;DHT22;7476;49.404;11.152;2023-04-04T04:52:23;-6.00;99.90
14769;DHT22;7476;49.404;11.152;2023-04-04T04:54:50;-6.00;99.90
14769;DHT22;7476;49.404;11.152;2023-04-04T04:57:20;-6.00;99.90
14769;DHT22;7476;49.404;11.152;2023-04-04T04:59:47;-6.20;99.90
14769;DHT22;7476;49.404;11.152;2023-04-04T05:02:14;-6.20;99.90
14769;DHT22;7476;49.404;11.152;2023-04-04T05:04:42;-6.30;99.90
14769;DHT22;7476;49.404;11.152;2023-04-04T05:07:10;-6.20;99.90
14769;DHT22;7476;49.404;11.152;2023-04-04T05:09:37;-6.10;99.90
14769;DHT22;7476;49.404;11.152;2023-04-04T05:12:04;-5.80;99.90
14769;DHT22;7476;49.404;11.152;2023-04-04T05:14:31;-5.40;99.90
14769;DHT22;7476;49.404;11.152;2023-04-04T05:16:57;-5.20;99.90
14769;DHT22;7476;49.404;11.152;2023-04-04T05:19:24;-5.00;99.90
14769;DHT22;7476;49.404;11.152;2023-04-04T05:21:52;-4.90;99.90
14769;DHT22;7476;49.404;11.152;2023-04-04T05:24:19;-4.80;99.90
14769;DHT22;7476;49.404;11.152;2023-04-04T05:26:47;-4.60;99.90
14769;DHT22;7476;49.404;11.152;2023-04-04T05:29:13;-4.50;99.90
14769;DHT22;7476;49.404;11.152;2023-04-04T05:31:40;-4.40;99.90
14769;DHT22;7476;49.404;11.152;2023-04-04T05:34:07;-4.30;99.90
14769;DHT22;7476;49.404;11.152;2023-04-04T05:36:33;-4.20;99.90
14769;DHT22;7476;49.404;11.152;2023-04-04T05:39:02;-3.70;99.90
14769;DHT22;7476;49.404;11.152;2023-04-04T05:41:29;-2.90;99.90
14769;DHT22;7476;49.404;11.152;2023-04-04T05:43:56;-1.90;99.90
14769;DHT22;7476;49.404;11.152;2023-04-04T05:46:23;-0.60;99.90
14769;DHT22;7476;49.404;11.152;2023-04-04T05:48:50;0.00;99.90
14769;DHT22;7476;49.404;11.152;2023-04-04T05:51:17;0.70;99.90
14769;DHT22;7476;49.404;11.152;2023-04-04T05:53:43;1.20;99.90
14769;DHT22;7476;49.404;11.152;2023-04-04T05:56:13;1.70;99.90
14769;DHT22;7476;49.404;11.152;2023-04-04T05:58:40;2.30;99.90
14769;DHT22;7476;49.404;11.152;2023-04-04T06:01:07;3.00;99.90
14769;DHT22;7476;49.404;11.152;2023-04-04T06:03:35;3.30;99.90
14769;DHT22;7476;49.404;11.152;2023-04-04T06:06:02;4.00;99.90
14769;DHT22;7476;49.404;11.152;2023-04-04T06:08:29;4.10;99.90
14769;DHT22;7476;49.404;11.152;2023-04-04T06:10:56;3.20;99.90
14769;DHT22;7476;49.404;11.152;2023-04-04T06:13:24;3.30;99.90
14769;DHT22;7476;49.404;11.152;2023-04-04T06:15:51;3.30;99.90
14769;DHT22;7476;49.404;11.152;2023-04-04T06:18:17;2.50;99.90
14769;DHT22;7476;49.404;11.152;2023-04-04T06:20:44;2.30;99.90
14769;DHT22;7476;49.404;11.152;2023-04-04T06:23:10;2.60;99.90
14769;DHT22;7476;49.404;11.152;2023-04-04T06:25:37;2.90;99.90
14769;DHT22;7476;49.404;11.152;2023-04-04T06:28:04;3.40;99.90
14769;DHT22;7476;49.404;11.152;2023-04-04T06:30:35;3.40;99.90
14769;DHT22;7476;49.404;11.152;2023-04-04T06:33:03;3.40;99.90
14769;DHT22;7476;49.404;11.152;2023-04-04T06:35:30;3.10;99.90
14769;DHT22;7476;49.404;11.152;2023-04-04T06:37:59;3.00;99.90
14769;DHT22;7476;49.404;11.152;2023-04-04T06:40:27;3.10;99.90
14769;DHT22;7476;49.404;11.152;2023-04-04T06:42:53;3.90;99.90
14769;DHT22;7476;49.404;11.152;2023-04-04T06:45:23;4.20;99.90
14769;DHT22;7476;49.404;11.152;2023-04-04T06:47:51;4.10;99.90
14769;DHT22;7476;49.404;11.152;2023-04-04T06:50:18;4.70;99.90
14769;DHT22;7476;49.404;11.152;2023-04-04T06:52:45;4.10;99.90
14769;DHT22;7476;49.404;11.152;2023-04-04T06:55:12;3.90;99.90
14769;DHT22;7476;49.404;11.152;2023-04-04T06:57:39;4.00;99.90
14769;DHT22;7476;49.404;11.152;2023-04-04T07:00:06;4.20;99.90
14769;DHT22;7476;49.404;11.152;2023-04-04T07:02:33;4.10;99.90
14769;DHT22;7476;49.404;11.152;2023-04-04T07:05:02;4.70;99.90
14769;DHT22;7476;49.404;11.152;2023-04-04T07:07:29;4.00;99.90
14769;DHT22;7476;49.404;11.152;2023-04-04T07:09:55;3.80;99.90
14769;DHT22;7476;49.404;11.152;2023-04-04T07:12:22;3.60;99.90
14769;DHT22;7476;49.404;11.152;2023-04-04T07:14:48;4.20;99.90
14769;DHT22;7476;49.404;11.152;2023-04-04T07:17:15;4.50;99.90
14769;DHT22;7476;49.404;11.152;2023-04-04T07:19:42;4.50;99.90
14769;DHT22;7476;49.404;11.152;2023-04-04T07:22:10;4.90;99.90
14769;DHT22;7476;49.404;11.152;2023-04-04T07:24:37;4.70;99.90
14769;DHT22;7476;49.404;11.152;2023-04-04T07:27:04;4.40;99.90
14769;DHT22;7476;49.404;11.152;2023-04-04T07:29:30;4.50;99.90
14769;DHT22;7476;49.404;11.152;2023-04-04T07:31:57;4.00;99.90
14769;DHT22;7476;49.404;11.152;2023-04-04T07:34:24;3.90;99.90
14769;DHT22;7476;49.404;11.152;2023-04-04T07:36:51;4.30;99.90
14769;DHT22;7476;49.404;11.152;2023-04-04T07:39:20;4.20;99.90
14769;DHT22;7476;49.404;11.152;2023-04-04T07:41:48;4.60;99.90
14769;DHT22;7476;49.404;11.152;2023-04-04T07:44:14;4.20;99.90
14769;DHT22;7476;49.404;11.152;2023-04-04T07:46:41;3.70;99.90
14769;DHT22;7476;49.404;11.152;2023-04-04T07:49:08;3.50;99.90
14769;DHT22;7476;49.404;11.152;2023-04-04T07:51:34;3.90;99.90
14769;DHT22;7476;49.404;11.152;2023-04-04T07:54:01;3.50;99.90
14769;DHT22;7476;49.404;11.152;2023-04-04T07:56:29;3.20;99.90
14769;DHT22;7476;49.404;11.152;2023-04-04T07:58:56;3.00;99.90
14769;DHT22;7476;49.404;11.152;2023-04-04T08:01:23;2.90;99.90
14769;DHT22;7476;49.404;11.152;2023-04-04T08:03:49;2.90;99.90
14769;DHT22;7476;49.404;11.152;2023-04-04T08:06:17;3.10;99.90
14769;DHT22;7476;49.404;11.152;2023-04-04T08:08:44;3.10;99.90
14769;DHT22;7476;49.404;11.152;2023-04-04T08:11:12;3.20;99.90
14769;DHT22;7476;49.404;11.152;2023-04-04T08:13:40;3.50;99.90
14769;DHT22;7476;49.404;11.152;2023-04-04T08:16:07;3.90;99.90
14769;DHT22;7476;49.404;11.152;2023-04-04T08:18:33;4.10;99.90
14769;DHT22;7476;49.404;11.152;2023-04-04T08:21:00;4.20;99.90
14769;DHT22;7476;49.404;11.152;2023-04-04T08:23:27;4.40;99.90
14769;DHT22;7476;49.404;11.152;2023-04-04T08:25:54;4.70;99.90
14769;DHT22;7476;49.404;11.152;2023-04-04T08:28:23;4.50;99.90
14769;DHT22;7476;49.404;11.152;2023-04-04T08:30:52;4.10;99.90
14769;DHT22;7476;49.404;11.152;2023-04-04T08:33:19;4.20;99.90
14769;DHT22;7476;49.404;11.152;2023-04-04T08:35:46;4.10;99.90
14769;DHT22;7476;49.404;11.152;2023-04-04T08:38:13;4.10;99.90
14769;DHT22;7476;49.404;11.152;2023-04-04T08:40:40;4.40;99.90
14769;DHT22;7476;49.404;11.152;2023-04-04T08:43:07;3.90;99.90
14769;DHT22;7476;49.404;11.152;2023-04-04T08:45:36;3.80;99.90
14769;DHT22;7476;49.404;11.152;2023-04-04T08:48:06;3.90;99.90
14769;DHT22;7476;49.404;11.152;2023-04-04T08:50:35;4.30;99.90
14769;DHT22;7476;49.404;11.152;2023-04-04T08:53:03;4.50;99.90
14769;DHT22;7476;49.404;11.152;2023-04-04T08:55:30;4.80;99.90
14769;DHT22;7476;49.404;11.152;2023-04-04T08:57:57;5.20;99.90
14769;DHT22;7476;49.404;11.152;2023-04-04T09:00:24;5.10;99.90
14769;DHT22;7476;49.404;11.152;2023-04-04T09:02:54;4.80;99.90
14769;DHT22;7476;49.404;11.152;2023-04-04T09:05:24;4.30;99.90
14769;DHT22;7476;49.404;11.152;2023-04-04T09:07:52;4.30;99.90
14769;DHT22;7476;49.404;11.152;2023-04-04T09:10:20;4.10;99.90
14769;DHT22;7476;49.404;11.152;2023-04-04T09:12:47;4.40;99.90
14769;DHT22;7476;49.404;11.152;2023-04-04T09:15:16;4.20;99.90
14769;DHT22;7476;49.404;11.152;2023-04-04T09:17:43;4.40;99.90
14769;DHT22;7476;49.404;11.152;2023-04-04T09:20:39;4.40;99.90
14769;DHT22;7476;49.404;11.152;2023-04-04T09:23:07;4.80;99.90
14769;DHT22;7476;49.404;11.152;2023-04-04T09:25:35;4.80;99.90
14769;DHT22;7476;49.404;11.152;2023-04-04T09:28:02;4.80;99.90
14769;DHT22;7476;49.404;11.152;2023-04-04T09:30:31;4.80;99.90
14769;DHT22;7476;49.404;11.152;2023-04-04T09:33:00;4.70;99.90
14769;DHT22;7476;49.404;11.152;2023-04-04T09:35:27;4.40;99.90
14769;DHT22;7476;49.404;11.152;2023-04-04T09:37:55;4.70;99.90
14769;DHT22;7476;49.404;11.152;2023-04-04T09:40:22;5.20;99.90
14769;DHT22;7476;49.404;11.152;2023-04-04T09:42:53;5.10;99.90
14769;DHT22;7476;49.404;11.152;2023-04-04T09:45:22;5.70;99.90
14769;DHT22;7476;49.404;11.152;2023-04-04T09:47:50;5.50;99.90
14769;DHT22;7476;49.404;11.152;2023-04-04T09:50:20;5.90;99.90
14769;DHT22;7476;49.404;11.152;2023-04-04T09:52:48;6.00;99.90
14769;DHT22;7476;49.404;11.152;2023-04-04T09:55:16;5.70;99.90
14769;DHT22;7476;49.404;11.152;2023-04-04T09:57:45;5.40;99.90
14769;DHT22;7476;49.404;11.152;2023-04-04T10:00:18;5.50;99.90
14769;DHT22;7476;49.404;11.152;2023-04-04T10:02:46;5.20;99.90
14769;DHT22;7476;49.404;11.152;2023-04-04T10:05:15;5.30;99.90
14769;DHT22;7476;49.404;11.152;2023-04-04T10:07:42;5.90;99.90
14769;DHT22;7476;49.404;11.152;2023-04-04T10:10:12;6.60;99.90
14769;DHT22;7476;49.404;11.152;2023-04-04T10:12:44;8.20;99.90
14769;DHT22;7476;49.404;11.152;2023-04-04T10:15:11;7.00;99.90
14769;DHT22;7476;49.404;11.152;2023-04-04T10:17:39;6.50;99.90
14769;DHT22;7476;49.404;11.152;2023-04-04T10:20:07;6.20;99.90
14769;DHT22;7476;49.404;11.152;2023-04-04T10:22:35;6.70;99.90
14769;DHT22;7476;49.404;11.152;2023-04-04T10:25:02;7.20;99.90
14769;DHT22;7476;49.404;11.152;2023-04-04T10:27:30;8.10;99.90
14769;DHT22;7476;49.404;11.152;2023-04-04T10:29:58;8.00;99.90
14769;DHT22;7476;49.404;11.152;2023-04-04T10:32:31;7.10;99.90
14769;DHT22;7476;49.404;11.152;2023-04-04T10:35:01;7.30;99.90
14769;DHT22;7476;49.404;11.152;2023-04-04T10:37:32;7.50;99.90
14769;DHT22;7476;49.404;11.152;2023-04-04T10:40:04;7.30;99.90
14769;DHT22;7476;49.404;11.152;2023-04-04T10:42:37;7.70;99.90
14769;DHT22;7476;49.404;11.152;2023-04-04T10:45:08;7.50;99.90
14769;DHT22;7476;49.404;11.152;2023-04-04T10:47:35;7.70;99.90
14769;DHT22;7476;49.404;11.152;2023-04-04T10:50:03;7.30;99.90
14769;DHT22;7476;49.404;11.152;2023-04-04T10:52:32;7.70;99.90
14769;DHT22;7476;49.404;11.152;2023-04-04T10:55:02;7.20;99.90
14769;DHT22;7476;49.404;11.152;2023-04-04T10:57:31;6.60;99.90
14769;DHT22;7476;49.404;11.152;2023-04-04T11:00:00;6.90;99.90
14769;DHT22;7476;49.404;11.152;2023-04-04T11:02:47;6.80;99.90
14769;DHT22;7476;49.404;11.152;2023-04-04T11:05:19;7.20;99.90
14769;DHT22;7476;49.404;11.152;2023-04-04T11:07:51;7.50;99.90
14769;DHT22;7476;49.404;11.152;2023-04-04T11:10:21;7.60;99.90
14769;DHT22;7476;49.404;11.152;2023-04-04T11:12:52;8.00;99.90
14769;DHT22;7476;49.404;11.152;2023-04-04T11:15:21;8.40;99.90
14769;DHT22;7476;49.404;11.152;2023-04-04T11:17:58;8.50;99.90
14769;DHT22;7476;49.404;11.152;2023-04-04T11:20:30;8.10;99.30
14769;DHT22;7476;49.404;11.152;2023-04-04T11:23:02;8.50;99.90
14769;DHT22;7476;49.404;11.152;2023-04-04T11:25:39;8.90;99.90
14769;DHT22;7476;49.404;11.152;2023-04-04T11:28:24;7.60;99.90
14769;DHT22;7476;49.404;11.152;2023-04-04T11:31:22;6.90;99.90
14769;DHT22;7476;49.404;11.152;2023-04-04T11:33:57;6.30;99.90
14769;DHT22;7476;49.404;11.152;2023-04-04T11:36:48;6.10;99.90
14769;DHT22;7476;49.404;11.152;2023-04-04T11:39:25;6.90;99.90
14769;DHT22;7476;49.404;11.152;2023-04-04T11:41:53;7.60;99.90
14769;DHT22;7476;49.404;11.152;2023-04-04T11:44:22;7.50;99.90
14769;DHT22;7476;49.404;11.152;2023-04-04T11:46:54;7.60;99.90
14769;DHT22;7476;49.404;11.152;2023-04-04T11:49:26;7.90;99.90
14769;DHT22;7476;49.404;11.152;2023-04-04T11:51:54;9.30;99.40
14769;DHT22;7476;49.404;11.152;2023-04-04T11:54:21;9.80;99.50
14769;DHT22;7476;49.404;11.152;2023-04-04T11:56:48;8.70;98.80
14769;DHT22;7476;49.404;11.152;2023-04-04T11:59:17;7.30;99.90
14769;DHT22;7476;49.404;11.152;2023-04-04T12:01:44;7.20;99.90
14769;DHT22;7476;49.404;11.152;2023-04-04T12:04:14;7.30;99.90
14769;DHT22;7476;49.404;11.152;2023-04-04T12:06:46;6.90;99.90
14769;DHT22;7476;49.404;11.152;2023-04-04T12:09:15;6.60;99.90
14769;DHT22;7476;49.404;11.152;2023-04-04T12:11:43;6.30;99.90
14769;DHT22;7476;49.404;11.152;2023-04-04T12:14:15;6.40;99.90
14769;DHT22;7476;49.404;11.152;2023-04-04T12:16:42;7.40;99.90
14769;DHT22;7476;49.404;11.152;2023-04-04T12:19:10;9.60;99.90
14769;DHT22;7476;49.404;11.152;2023-04-04T12:21:37;9.70;97.90
14769;DHT22;7476;49.404;11.152;2023-04-04T12:24:06;9.00;98.40
14769;DHT22;7476;49.404;11.152;2023-04-04T12:26:34;8.80;99.40
14769;DHT22;7476;49.404;11.152;2023-04-04T12:29:02;10.00;98.90
14769;DHT22;7476;49.404;11.152;2023-04-04T12:31:30;9.90;96.30
14769;DHT22;7476;49.404;11.152;2023-04-04T12:33:58;9.90;96.10
14769;DHT22;7476;49.404;11.152;2023-04-04T12:36:25;9.90;97.80
14769;DHT22;7476;49.404;11.152;2023-04-04T12:38:57;10.80;95.80
14769;DHT22;7476;49.404;11.152;2023-04-04T12:41:25;11.00;97.30
14769;DHT22;7476;49.404;11.152;2023-04-04T12:43:59;11.10;94.60
14769;DHT22;7476;49.404;11.152;2023-04-04T12:46:27;11.30;94.40
14769;DHT22;7476;49.404;11.152;2023-04-04T12:48:54;10.40;94.40
14769;DHT22;7476;49.404;11.152;2023-04-04T12:51:21;10.90;95.10
14769;DHT22;7476;49.404;11.152;2023-04-04T12:53:55;12.00;94.90
14769;DHT22;7476;49.404;11.152;2023-04-04T12:56:26;11.20;93.70
14769;DHT22;7476;49.404;11.152;2023-04-04T12:58:56;11.40;95.10
14769;DHT22;7476;49.404;11.152;2023-04-04T13:01:25;10.30;95.20
14769;DHT22;7476;49.404;11.152;2023-04-04T13:03:52;8.80;96.90
14769;DHT22;7476;49.404;11.152;2023-04-04T13:06:19;8.50;98.30
14769;DHT22;7476;49.404;11.152;2023-04-04T13:08:50;8.20;98.80
14769;DHT22;7476;49.404;11.152;2023-04-04T13:11:17;7.60;99.10
14769;DHT22;7476;49.404;11.152;2023-04-04T13:13:45;7.90;99.30
14769;DHT22;7476;49.404;11.152;2023-04-04T13:16:12;7.80;99.60
14769;DHT22;7476;49.404;11.152;2023-04-04T13:18:42;7.70;99.40
14769;DHT22;7476;49.404;11.152;2023-04-04T13:21:10;7.50;99.20
14769;DHT22;7476;49.404;11.152;2023-04-04T13:23:38;7.30;99.90
14769;DHT22;7476;49.404;11.152;2023-04-04T13:26:06;7.20;99.60
14769;DHT22;7476;49.404;11.152;2023-04-04T13:28:34;7.90;98.90
14769;DHT22;7476;49.404;11.152;2023-04-04T13:31:03;8.70;98.30
14769;DHT22;7476;49.404;11.152;2023-04-04T13:33:30;10.20;96.90
14769;DHT22;7476;49.404;11.152;2023-04-04T13:35:57;12.70;92.50
14769;DHT22;7476;49.404;11.152;2023-04-04T13:38:24;12.00;92.50
14769;DHT22;7476;49.404;11.152;2023-04-04T13:40:52;12.40;90.60
14769;DHT22;7476;49.404;11.152;2023-04-04T13:43:18;12.40;91.50
14769;DHT22;7476;49.404;11.152;2023-04-04T13:45:45;12.10;92.20
14769;DHT22;7476;49.404;11.152;2023-04-04T13:48:13;10.70;91.80
14769;DHT22;7476;49.404;11.152;2023-04-04T13:50:42;9.30;94.20
14769;DHT22;7476;49.404;11.152;2023-04-04T13:53:11;8.60;93.60
14769;DHT22;7476;49.404;11.152;2023-04-04T13:55:38;8.40;95.20
14769;DHT22;7476;49.404;11.152;2023-04-04T13:58:05;8.70;95.50
14769;DHT22;7476;49.404;11.152;2023-04-04T14:00:32;9.40;93.70
14769;DHT22;7476;49.404;11.152;2023-04-04T14:02:59;10.50;92.30
14769;DHT22;7476;49.404;11.152;2023-04-04T14:05:27;12.60;89.60
14769;DHT22;7476;49.404;11.152;2023-04-04T14:07:54;13.90;89.00
14769;DHT22;7476;49.404;11.152;2023-04-04T14:10:21;13.80;87.60
14769;DHT22;7476;49.404;11.152;2023-04-04T14:12:47;12.20;88.80
14769;DHT22;7476;49.404;11.152;2023-04-04T14:15:14;11.60;89.70
14769;DHT22;7476;49.404;11.152;2023-04-04T14:17:43;12.10;90.60
14769;DHT22;7476;49.404;11.152;2023-04-04T14:20:10;12.50;88.60
14769;DHT22;7476;49.404;11.152;2023-04-04T14:22:38;11.00;91.00
14769;DHT22;7476;49.404;11.152;2023-04-04T14:25:05;10.90;90.70
14769;DHT22;7476;49.404;11.152;2023-04-04T14:27:31;9.20;92.10
14769;DHT22;7476;49.404;11.152;2023-04-04T14:29:58;8.70;92.70
14769;DHT22;7476;49.404;11.152;2023-04-04T14:32:25;9.20;91.70
14769;DHT22;7476;49.404;11.152;2023-04-04T14:34:52;8.70;93.30
14769;DHT22;7476;49.404;11.152;2023-04-04T14:37:19;11.10;89.80
14769;DHT22;7476;49.404;11.152;2023-04-04T14:39:47;11.90;90.10
14769;DHT22;7476;49.404;11.152;2023-04-04T14:42:14;12.70;86.70
14769;DHT22;7476;49.404;11.152;2023-04-04T14:44:40;15.50;81.50
14769;DHT22;7476;49.404;11.152;2023-04-04T14:47:07;17.50;76.40
14769;DHT22;7476;49.404;11.152;2023-04-04T14:49:34;17.80;70.50
14769;DHT22;7476;49.404;11.152;2023-04-04T14:52:00;13.70;74.40
14769;DHT22;7476;49.404;11.152;2023-04-04T14:54:27;11.50;80.90
14769;DHT22;7476;49.404;11.152;2023-04-04T14:56:55;10.70;85.80
14769;DHT22;7476;49.404;11.152;2023-04-04T14:59:22;12.20;85.40
14769;DHT22;7476;49.404;11.152;2023-04-04T15:01:49;12.40;82.20
14769;DHT22;7476;49.404;11.152;2023-04-04T15:04:16;12.40;83.80
14769;DHT22;7476;49.404;11.152;2023-04-04T15:06:42;11.70;83.00
14769;DHT22;7476;49.404;11.152;2023-04-04T15:09:09;10.20;90.30
14769;DHT22;7476;49.404;11.152;2023-04-04T15:11:36;9.30;90.40
14769;DHT22;7476;49.404;11.152;2023-04-04T15:14:04;8.80;91.20
14769;DHT22;7476;49.404;11.152;2023-04-04T15:16:31;8.30;91.70
14769;DHT22;7476;49.404;11.152;2023-04-04T15:18:59;7.90;93.80
14769;DHT22;7476;49.404;11.152;2023-04-04T15:21:26;7.90;93.50
14769;DHT22;7476;49.404;11.152;2023-04-04T15:23:53;7.80;94.00
14769;DHT22;7476;49.404;11.152;2023-04-04T15:26:20;7.60;92.70
14769;DHT22;7476;49.404;11.152;2023-04-04T15:28:47;7.50;93.80
14769;DHT22;7476;49.404;11.152;2023-04-04T15:31:15;7.30;95.20
14769;DHT22;7476;49.404;11.152;2023-04-04T15:33:42;7.00;94.60
14769;DHT22;7476;49.404;11.152;2023-04-04T15:36:08;6.80;95.10
14769;DHT22;7476;49.404;11.152;2023-04-04T15:38:35;6.70;96.40
14769;DHT22;7476;49.404;11.152;2023-04-04T15:41:04;6.80;95.80
14769;DHT22;7476;49.404;11.152;2023-04-04T15:43:31;6.90;95.90
14769;DHT22;7476;49.404;11.152;2023-04-04T15:45:57;7.40;96.40